sensor_id;sensor_type;location;lat;lon;timestamp;P1;durP1;ratioP1;P2;durP2;ratioP2
9671;SDS011;4874;43.568;27.824;2022-10-31T00:00:54;26.08;;;13.05;;
9671;SDS011;4874;43.568;27.824;2022-10-31T00:03:21;23.23;;;12.65;;
9671;SDS011;4874;43.568;27.824;2022-10-31T00:05:48;22.92;;;12.70;;
9671;SDS011;4874;43.568;27.824;2022-10-31T00:08:16;18.92;;;11.55;;
9671;SDS011;4874;43.568;27.824;2022-10-31T00:10:43;20.60;;;11.40;;
9671;SDS011;4874;43.568;27.824;2022-10-31T00:24:14;18.70;;;10.70;;
9671;SDS011;4874;43.568;27.824;2022-10-31T00:26:40;19.30;;;11.27;;
9671;SDS011;4874;43.568;27.824;2022-10-31T00:29:07;24.77;;;10.43;;
9671;SDS011;4874;43.568;27.824;2022-10-31T00:31:34;19.10;;;11.00;;
9671;SDS011;4874;43.568;27.824;2022-10-31T00:34:00;19.90;;;9.27;;
9671;SDS011;4874;43.568;27.824;2022-10-31T00:36:29;19.25;;;10.20;;
9671;SDS011;4874;43.568;27.824;2022-10-31T00:38:55;19.23;;;10.90;;
9671;SDS011;4874;43.568;27.824;2022-10-31T00:41:24;21.27;;;10.65;;
9671;SDS011;4874;43.568;27.824;2022-10-31T00:43:51;24.80;;;11.02;;
9671;SDS011;4874;43.568;27.824;2022-10-31T00:46:17;20.48;;;10.65;;
9671;SDS011;4874;43.568;27.824;2022-10-31T00:48:44;19.52;;;10.80;;
9671;SDS011;4874;43.568;27.824;2022-10-31T00:51:11;20.77;;;10.23;;
9671;SDS011;4874;43.568;27.824;2022-10-31T00:53:37;17.38;;;8.98;;
9671;SDS011;4874;43.568;27.824;2022-10-31T00:56:04;18.52;;;9.77;;
9671;SDS011;4874;43.568;27.824;2022-10-31T00:58:31;17.83;;;8.82;;
9671;SDS011;4874;43.568;27.824;2022-10-31T01:00:58;20.30;;;10.25;;
9671;SDS011;4874;43.568;27.824;2022-10-31T01:03:26;16.98;;;9.18;;
9671;SDS011;4874;43.568;27.824;2022-10-31T01:06:15;18.38;;;9.07;;
9671;SDS011;4874;43.568;27.824;2022-10-31T01:08:42;16.90;;;9.40;;
9671;SDS011;4874;43.568;27.824;2022-10-31T01:11:13;15.80;;;9.25;;
9671;SDS011;4874;43.568;27.824;2022-10-31T01:13:42;24.15;;;13.52;;
9671;SDS011;4874;43.568;27.824;2022-10-31T01:16:14;24.73;;;11.07;;
9671;SDS011;4874;43.568;27.824;2022-10-31T01:18:42;22.95;;;11.90;;
9671;SDS011;4874;43.568;27.824;2022-10-31T01:21:10;21.83;;;12.23;;
9671;SDS011;4874;43.568;27.824;2022-10-31T01:23:39;20.23;;;11.43;;
9671;SDS011;4874;43.568;27.824;2022-10-31T01:26:25;17.63;;;11.00;;
9671;SDS011;4874;43.568;27.824;2022-10-31T01:29:00;21.85;;;11.68;;
9671;SDS011;4874;43.568;27.824;2022-10-31T01:31:31;19.15;;;10.70;;
9671;SDS011;4874;43.568;27.824;2022-10-31T01:33:59;20.08;;;11.25;;
9671;SDS011;4874;43.568;27.824;2022-10-31T01:36:33;19.88;;;10.30;;
9671;SDS011;4874;43.568;27.824;2022-10-31T01:39:04;16.17;;;10.30;;
9671;SDS011;4874;43.568;27.824;2022-10-31T01:41:33;24.48;;;10.10;;
9671;SDS011;4874;43.568;27.824;2022-10-31T01:44:43;19.42;;;9.90;;
9671;SDS011;4874;43.568;27.824;2022-10-31T01:46:53;22.20;;;10.50;;
9671;SDS011;4874;43.568;27.824;2022-10-31T01:52:12;20.88;;;10.07;;
9671;SDS011;4874;43.568;27.824;2022-10-31T01:54:46;24.85;;;10.63;;
9671;SDS011;4874;43.568;27.824;2022-10-31T01:57:20;18.33;;;9.60;;
9671;SDS011;4874;43.568;27.824;2022-10-31T01:59:48;24.27;;;9.63;;
9671;SDS011;4874;43.568;27.824;2022-10-31T02:02:19;24.63;;;9.90;;
9671;SDS011;4874;43.568;27.824;2022-10-31T02:04:46;26.67;;;8.98;;
9671;SDS011;4874;43.568;27.824;2022-10-31T02:07:14;27.45;;;10.52;;
9671;SDS011;4874;43.568;27.824;2022-10-31T02:09:45;23.10;;;9.35;;
9671;SDS011;4874;43.568;27.824;2022-10-31T02:12:13;24.38;;;9.82;;
9671;SDS011;4874;43.568;27.824;2022-10-31T02:14:41;24.08;;;9.95;;
9671;SDS011;4874;43.568;27.824;2022-10-31T02:17:08;22.23;;;10.02;;
9671;SDS011;4874;43.568;27.824;2022-10-31T02:19:45;18.90;;;9.13;;
9671;SDS011;4874;43.568;27.824;2022-10-31T02:33:48;25.17;;;9.82;;
9671;SDS011;4874;43.568;27.824;2022-10-31T02:41:43;23.45;;;9.88;;
9671;SDS011;4874;43.568;27.824;2022-10-31T02:44:35;23.42;;;10.23;;
9671;SDS011;4874;43.568;27.824;2022-10-31T02:52:17;20.63;;;9.18;;
9671;SDS011;4874;43.568;27.824;2022-10-31T02:54:46;20.25;;;9.68;;
9671;SDS011;4874;43.568;27.824;2022-10-31T02:57:13;20.25;;;9.48;;
9671;SDS011;4874;43.568;27.824;2022-10-31T02:59:48;22.75;;;9.95;;
9671;SDS011;4874;43.568;27.824;2022-10-31T03:15:54;24.95;;;12.10;;
9671;SDS011;4874;43.568;27.824;2022-10-31T03:18:34;23.52;;;12.65;;
9671;SDS011;4874;43.568;27.824;2022-10-31T03:21:13;27.80;;;12.20;;
9671;SDS011;4874;43.568;27.824;2022-10-31T03:23:43;26.40;;;11.77;;
9671;SDS011;4874;43.568;27.824;2022-10-31T03:26:12;23.73;;;10.98;;
9671;SDS011;4874;43.568;27.824;2022-10-31T03:28:43;18.70;;;12.10;;
9671;SDS011;4874;43.568;27.824;2022-10-31T03:31:16;20.88;;;11.40;;
9671;SDS011;4874;43.568;27.824;2022-10-31T03:33:45;20.17;;;11.18;;
9671;SDS011;4874;43.568;27.824;2022-10-31T03:36:14;21.27;;;11.32;;
9671;SDS011;4874;43.568;27.824;2022-10-31T03:38:42;18.60;;;10.98;;
9671;SDS011;4874;43.568;27.824;2022-10-31T03:41:14;30.40;;;12.70;;
9671;SDS011;4874;43.568;27.824;2022-10-31T03:43:48;23.10;;;10.95;;
9671;SDS011;4874;43.568;27.824;2022-10-31T03:46:21;20.52;;;11.35;;
9671;SDS011;4874;43.568;27.824;2022-10-31T03:48:49;20.33;;;10.68;;
9671;SDS011;4874;43.568;27.824;2022-10-31T03:54:44;32.50;;;16.45;;
9671;SDS011;4874;43.568;27.824;2022-10-31T04:00:06;37.53;;;19.42;;
9671;SDS011;4874;43.568;27.824;2022-10-31T04:02:45;34.90;;;18.08;;
9671;SDS011;4874;43.568;27.824;2022-10-31T04:05:24;35.33;;;17.92;;
9671;SDS011;4874;43.568;27.824;2022-10-31T04:07:53;29.50;;;15.02;;
9671;SDS011;4874;43.568;27.824;2022-10-31T04:10:23;26.75;;;14.75;;
9671;SDS011;4874;43.568;27.824;2022-10-31T04:12:57;24.55;;;13.65;;
9671;SDS011;4874;43.568;27.824;2022-10-31T04:15:28;22.85;;;12.40;;
9671;SDS011;4874;43.568;27.824;2022-10-31T04:17:58;23.60;;;12.10;;
9671;SDS011;4874;43.568;27.824;2022-10-31T04:20:46;19.88;;;11.65;;
9671;SDS011;4874;43.568;27.824;2022-10-31T04:23:24;22.38;;;10.48;;
9671;SDS011;4874;43.568;27.824;2022-10-31T04:28:18;17.50;;;10.18;;
9671;SDS011;4874;43.568;27.824;2022-10-31T04:30:45;18.30;;;10.52;;
9671;SDS011;4874;43.568;27.824;2022-10-31T04:33:12;22.40;;;10.63;;
9671;SDS011;4874;43.568;27.824;2022-10-31T04:35:38;16.88;;;9.50;;
9671;SDS011;4874;43.568;27.824;2022-10-31T04:38:06;14.95;;;9.75;;
9671;SDS011;4874;43.568;27.824;2022-10-31T04:42:59;18.63;;;9.45;;
9671;SDS011;4874;43.568;27.824;2022-10-31T04:45:26;18.08;;;9.82;;
9671;SDS011;4874;43.568;27.824;2022-10-31T04:50:19;18.25;;;9.60;;
9671;SDS011;4874;43.568;27.824;2022-10-31T04:55:13;18.95;;;8.95;;
9671;SDS011;4874;43.568;27.824;2022-10-31T04:57:40;17.83;;;9.75;;
9671;SDS011;4874;43.568;27.824;2022-10-31T05:00:08;16.02;;;9.15;;
9671;SDS011;4874;43.568;27.824;2022-10-31T05:02:43;15.88;;;9.55;;
9671;SDS011;4874;43.568;27.824;2022-10-31T05:05:12;18.73;;;9.02;;
9671;SDS011;4874;43.568;27.824;2022-10-31T05:07:40;20.77;;;10.23;;
9671;SDS011;4874;43.568;27.824;2022-10-31T05:10:09;17.02;;;10.13;;
9671;SDS011;4874;43.568;27.824;2022-10-31T05:12:37;17.65;;;9.75;;
9671;SDS011;4874;43.568;27.824;2022-10-31T05:15:04;29.73;;;11.63;;
9671;SDS011;4874;43.568;27.824;2022-10-31T05:17:31;20.77;;;10.93;;
9671;SDS011;4874;43.568;27.824;2022-10-31T05:19:58;17.15;;;9.70;;
9671;SDS011;4874;43.568;27.824;2022-10-31T05:22:25;21.27;;;9.68;;
9671;SDS011;4874;43.568;27.824;2022-10-31T05:24:52;19.10;;;10.10;;
9671;SDS011;4874;43.568;27.824;2022-10-31T05:27:18;20.92;;;10.88;;
9671;SDS011;4874;43.568;27.824;2022-10-31T05:29:45;20.98;;;11.02;;
9671;SDS011;4874;43.568;27.824;2022-10-31T05:32:12;20.70;;;10.38;;
9671;SDS011;4874;43.568;27.824;2022-10-31T05:37:05;22.35;;;10.80;;
9671;SDS011;4874;43.568;27.824;2022-10-31T05:39:31;22.85;;;11.88;;
9671;SDS011;4874;43.568;27.824;2022-10-31T05:41:58;28.23;;;14.32;;
9671;SDS011;4874;43.568;27.824;2022-10-31T05:46:51;21.20;;;11.25;;
9671;SDS011;4874;43.568;27.824;2022-10-31T05:49:18;20.58;;;11.95;;
9671;SDS011;4874;43.568;27.824;2022-10-31T05:51:44;20.33;;;10.98;;
9671;SDS011;4874;43.568;27.824;2022-10-31T05:54:11;28.00;;;13.50;;
9671;SDS011;4874;43.568;27.824;2022-10-31T05:56:41;25.90;;;13.82;;
9671;SDS011;4874;43.568;27.824;2022-10-31T05:59:07;37.42;;;17.67;;
9671;SDS011;4874;43.568;27.824;2022-10-31T06:01:34;40.17;;;18.48;;
9671;SDS011;4874;43.568;27.824;2022-10-31T06:04:01;43.25;;;18.15;;
9671;SDS011;4874;43.568;27.824;2022-10-31T06:06:27;32.00;;;16.23;;
9671;SDS011;4874;43.568;27.824;2022-10-31T06:08:54;37.85;;;17.35;;
9671;SDS011;4874;43.568;27.824;2022-10-31T06:11:21;34.70;;;15.70;;
9671;SDS011;4874;43.568;27.824;2022-10-31T06:13:47;30.83;;;17.10;;
9671;SDS011;4874;43.568;27.824;2022-10-31T06:16:14;25.52;;;13.55;;
9671;SDS011;4874;43.568;27.824;2022-10-31T06:18:40;25.30;;;14.18;;
9671;SDS011;4874;43.568;27.824;2022-10-31T06:21:07;29.13;;;15.23;;
9671;SDS011;4874;43.568;27.824;2022-10-31T06:23:34;24.35;;;14.52;;
9671;SDS011;4874;43.568;27.824;2022-10-31T06:26:01;21.33;;;13.27;;
9671;SDS011;4874;43.568;27.824;2022-10-31T06:28:28;18.35;;;10.98;;
9671;SDS011;4874;43.568;27.824;2022-10-31T06:30:54;18.38;;;10.43;;
9671;SDS011;4874;43.568;27.824;2022-10-31T06:33:21;18.45;;;11.35;;
9671;SDS011;4874;43.568;27.824;2022-10-31T06:35:47;23.92;;;12.63;;
9671;SDS011;4874;43.568;27.824;2022-10-31T06:38:14;20.63;;;12.07;;
9671;SDS011;4874;43.568;27.824;2022-10-31T06:40:41;23.00;;;11.68;;
9671;SDS011;4874;43.568;27.824;2022-10-31T06:43:07;23.65;;;13.77;;
9671;SDS011;4874;43.568;27.824;2022-10-31T06:45:34;20.85;;;10.70;;
9671;SDS011;4874;43.568;27.824;2022-10-31T06:48:01;26.42;;;13.43;;
9671;SDS011;4874;43.568;27.824;2022-10-31T06:50:43;18.20;;;10.20;;
9671;SDS011;4874;43.568;27.824;2022-10-31T06:53:10;20.35;;;12.02;;
9671;SDS011;4874;43.568;27.824;2022-10-31T06:55:38;21.13;;;11.15;;
9671;SDS011;4874;43.568;27.824;2022-10-31T06:58:04;19.30;;;11.57;;
9671;SDS011;4874;43.568;27.824;2022-10-31T07:00:32;21.00;;;12.90;;
9671;SDS011;4874;43.568;27.824;2022-10-31T07:02:59;23.50;;;13.82;;
9671;SDS011;4874;43.568;27.824;2022-10-31T07:05:28;21.17;;;13.18;;
9671;SDS011;4874;43.568;27.824;2022-10-31T07:07:59;25.60;;;13.70;;
9671;SDS011;4874;43.568;27.824;2022-10-31T07:10:29;19.73;;;12.15;;
9671;SDS011;4874;43.568;27.824;2022-10-31T07:13:00;22.80;;;11.00;;
9671;SDS011;4874;43.568;27.824;2022-10-31T07:15:29;22.95;;;12.15;;
9671;SDS011;4874;43.568;27.824;2022-10-31T07:17:59;21.17;;;12.70;;
9671;SDS011;4874;43.568;27.824;2022-10-31T07:20:28;25.77;;;12.02;;
9671;SDS011;4874;43.568;27.824;2022-10-31T07:22:55;19.63;;;12.80;;
9671;SDS011;4874;43.568;27.824;2022-10-31T07:25:22;22.90;;;12.23;;
9671;SDS011;4874;43.568;27.824;2022-10-31T07:27:49;19.58;;;12.60;;
9671;SDS011;4874;43.568;27.824;2022-10-31T07:30:16;26.50;;;13.18;;
9671;SDS011;4874;43.568;27.824;2022-10-31T07:35:13;21.40;;;12.13;;
9671;SDS011;4874;43.568;27.824;2022-10-31T07:37:41;16.80;;;11.45;;
9671;SDS011;4874;43.568;27.824;2022-10-31T07:40:08;16.38;;;8.75;;
9671;SDS011;4874;43.568;27.824;2022-10-31T07:42:42;15.05;;;8.25;;
9671;SDS011;4874;43.568;27.824;2022-10-31T07:45:11;16.33;;;8.45;;
9671;SDS011;4874;43.568;27.824;2022-10-31T07:48:01;13.07;;;7.28;;
9671;SDS011;4874;43.568;27.824;2022-10-31T07:50:29;14.48;;;8.55;;
9671;SDS011;4874;43.568;27.824;2022-10-31T07:53:04;14.45;;;8.07;;
9671;SDS011;4874;43.568;27.824;2022-10-31T07:55:33;10.23;;;5.82;;
9671;SDS011;4874;43.568;27.824;2022-10-31T07:58:01;10.02;;;5.15;;
9671;SDS011;4874;43.568;27.824;2022-10-31T08:00:30;7.35;;;4.75;;
9671;SDS011;4874;43.568;27.824;2022-10-31T08:03:02;8.02;;;4.10;;
9671;SDS011;4874;43.568;27.824;2022-10-31T08:05:33;8.98;;;3.83;;
9671;SDS011;4874;43.568;27.824;2022-10-31T08:08:01;8.05;;;4.25;;
9671;SDS011;4874;43.568;27.824;2022-10-31T08:10:29;7.97;;;4.15;;
9671;SDS011;4874;43.568;27.824;2022-10-31T08:12:58;14.35;;;7.68;;
9671;SDS011;4874;43.568;27.824;2022-10-31T08:15:26;7.80;;;4.28;;
9671;SDS011;4874;43.568;27.824;2022-10-31T08:17:53;10.40;;;4.20;;
9671;SDS011;4874;43.568;27.824;2022-10-31T08:20:20;8.15;;;4.43;;
9671;SDS011;4874;43.568;27.824;2022-10-31T08:22:57;10.18;;;4.43;;
9671;SDS011;4874;43.568;27.824;2022-10-31T08:25:31;10.68;;;5.25;;
9671;SDS011;4874;43.568;27.824;2022-10-31T08:28:02;9.60;;;4.35;;
9671;SDS011;4874;43.568;27.824;2022-10-31T08:30:30;10.00;;;3.95;;
9671;SDS011;4874;43.568;27.824;2022-10-31T08:33:16;8.65;;;4.07;;
9671;SDS011;4874;43.568;27.824;2022-10-31T08:35:44;8.02;;;3.45;;
9671;SDS011;4874;43.568;27.824;2022-10-31T08:38:11;13.10;;;4.30;;
9671;SDS011;4874;43.568;27.824;2022-10-31T08:40:38;8.63;;;4.40;;
9671;SDS011;4874;43.568;27.824;2022-10-31T08:43:06;7.78;;;4.28;;
9671;SDS011;4874;43.568;27.824;2022-10-31T08:45:37;12.23;;;4.93;;
9671;SDS011;4874;43.568;27.824;2022-10-31T08:48:06;9.18;;;4.85;;
9671;SDS011;4874;43.568;27.824;2022-10-31T08:50:36;10.85;;;4.30;;
9671;SDS011;4874;43.568;27.824;2022-10-31T08:53:07;7.93;;;4.30;;
9671;SDS011;4874;43.568;27.824;2022-10-31T08:55:37;11.70;;;6.78;;
9671;SDS011;4874;43.568;27.824;2022-10-31T08:58:06;8.32;;;3.95;;
9671;SDS011;4874;43.568;27.824;2022-10-31T09:00:35;8.57;;;3.90;;
9671;SDS011;4874;43.568;27.824;2022-10-31T09:03:03;11.95;;;4.05;;
9671;SDS011;4874;43.568;27.824;2022-10-31T09:05:32;8.43;;;4.20;;
9671;SDS011;4874;43.568;27.824;2022-10-31T09:08:00;9.38;;;4.38;;
9671;SDS011;4874;43.568;27.824;2022-10-31T09:10:29;8.48;;;4.28;;
9671;SDS011;4874;43.568;27.824;2022-10-31T09:13:00;6.53;;;4.18;;
9671;SDS011;4874;43.568;27.824;2022-10-31T09:15:36;8.27;;;3.75;;
9671;SDS011;4874;43.568;27.824;2022-10-31T09:18:08;7.80;;;3.92;;
9671;SDS011;4874;43.568;27.824;2022-10-31T09:20:36;7.25;;;4.43;;
9671;SDS011;4874;43.568;27.824;2022-10-31T09:23:05;6.72;;;3.60;;
9671;SDS011;4874;43.568;27.824;2022-10-31T09:25:37;8.90;;;3.95;;
9671;SDS011;4874;43.568;27.824;2022-10-31T09:28:04;7.25;;;3.55;;
9671;SDS011;4874;43.568;27.824;2022-10-31T09:30:33;8.07;;;3.53;;
9671;SDS011;4874;43.568;27.824;2022-10-31T09:33:04;7.47;;;3.53;;
9671;SDS011;4874;43.568;27.824;2022-10-31T09:35:33;8.80;;;4.30;;
9671;SDS011;4874;43.568;27.824;2022-10-31T09:38:08;7.93;;;3.50;;
9671;SDS011;4874;43.568;27.824;2022-10-31T09:45:47;9.55;;;3.53;;
9671;SDS011;4874;43.568;27.824;2022-10-31T09:53:43;5.75;;;3.10;;
9671;SDS011;4874;43.568;27.824;2022-10-31T09:56:25;7.20;;;3.38;;
9671;SDS011;4874;43.568;27.824;2022-10-31T09:59:00;9.48;;;3.47;;
9671;SDS011;4874;43.568;27.824;2022-10-31T10:07:11;6.50;;;2.72;;
9671;SDS011;4874;43.568;27.824;2022-10-31T10:09:45;4.25;;;2.20;;
9671;SDS011;4874;43.568;27.824;2022-10-31T10:12:16;5.03;;;2.80;;
9671;SDS011;4874;43.568;27.824;2022-10-31T10:20:30;6.78;;;3.10;;
9671;SDS011;4874;43.568;27.824;2022-10-31T10:25:39;10.30;;;5.30;;
9671;SDS011;4874;43.568;27.824;2022-10-31T10:28:23;6.43;;;3.08;;
9671;SDS011;4874;43.568;27.824;2022-10-31T10:31:14;5.20;;;2.70;;
9671;SDS011;4874;43.568;27.824;2022-10-31T10:33:57;7.45;;;3.80;;
9671;SDS011;4874;43.568;27.824;2022-10-31T10:36:32;5.25;;;2.83;;
9671;SDS011;4874;43.568;27.824;2022-10-31T10:39:25;5.75;;;2.47;;
9671;SDS011;4874;43.568;27.824;2022-10-31T10:41:54;6.63;;;2.80;;
9671;SDS011;4874;43.568;27.824;2022-10-31T10:44:46;4.25;;;2.50;;
9671;SDS011;4874;43.568;27.824;2022-10-31T10:47:39;4.28;;;3.00;;
9671;SDS011;4874;43.568;27.824;2022-10-31T10:50:18;12.65;;;6.38;;
9671;SDS011;4874;43.568;27.824;2022-10-31T10:53:09;6.65;;;2.70;;
9671;SDS011;4874;43.568;27.824;2022-10-31T10:56:11;4.68;;;2.30;;
9671;SDS011;4874;43.568;27.824;2022-10-31T10:58:56;7.57;;;3.17;;
9671;SDS011;4874;43.568;27.824;2022-10-31T11:01:24;4.47;;;2.42;;
9671;SDS011;4874;43.568;27.824;2022-10-31T11:03:51;4.47;;;2.42;;
9671;SDS011;4874;43.568;27.824;2022-10-31T11:06:18;4.78;;;2.17;;
9671;SDS011;4874;43.568;27.824;2022-10-31T11:08:51;3.90;;;2.13;;
9671;SDS011;4874;43.568;27.824;2022-10-31T11:14:12;4.50;;;2.20;;
9671;SDS011;4874;43.568;27.824;2022-10-31T11:16:46;6.13;;;2.53;;
9671;SDS011;4874;43.568;27.824;2022-10-31T11:19:21;3.85;;;2.00;;
9671;SDS011;4874;43.568;27.824;2022-10-31T11:21:51;5.88;;;2.58;;
9671;SDS011;4874;43.568;27.824;2022-10-31T11:26:48;3.72;;;2.03;;
9671;SDS011;4874;43.568;27.824;2022-10-31T11:29:25;7.80;;;4.82;;
9671;SDS011;4874;43.568;27.824;2022-10-31T11:31:53;6.53;;;3.13;;
9671;SDS011;4874;43.568;27.824;2022-10-31T11:34:29;7.72;;;2.60;;
9671;SDS011;4874;43.568;27.824;2022-10-31T11:37:21;6.70;;;2.53;;
9671;SDS011;4874;43.568;27.824;2022-10-31T11:39:56;6.50;;;2.63;;
9671;SDS011;4874;43.568;27.824;2022-10-31T11:42:26;4.65;;;2.50;;
9671;SDS011;4874;43.568;27.824;2022-10-31T11:44:55;5.03;;;2.40;;
9671;SDS011;4874;43.568;27.824;2022-10-31T11:47:29;5.65;;;2.35;;
9671;SDS011;4874;43.568;27.824;2022-10-31T11:50:00;5.13;;;2.72;;
9671;SDS011;4874;43.568;27.824;2022-10-31T11:52:36;7.40;;;2.50;;
9671;SDS011;4874;43.568;27.824;2022-10-31T11:57:45;3.95;;;2.28;;
9671;SDS011;4874;43.568;27.824;2022-10-31T12:05:44;6.05;;;2.40;;
9671;SDS011;4874;43.568;27.824;2022-10-31T12:08:13;6.75;;;2.60;;
9671;SDS011;4874;43.568;27.824;2022-10-31T12:13:55;5.75;;;3.03;;
9671;SDS011;4874;43.568;27.824;2022-10-31T12:16:31;4.03;;;2.17;;
9671;SDS011;4874;43.568;27.824;2022-10-31T12:19:05;4.22;;;2.40;;
9671;SDS011;4874;43.568;27.824;2022-10-31T12:41:04;4.38;;;2.53;;
9671;SDS011;4874;43.568;27.824;2022-10-31T12:43:45;4.80;;;2.30;;
9671;SDS011;4874;43.568;27.824;2022-10-31T12:52:28;8.48;;;2.67;;
9671;SDS011;4874;43.568;27.824;2022-10-31T12:57:33;4.93;;;2.63;;
9671;SDS011;4874;43.568;27.824;2022-10-31T13:00:11;3.72;;;2.22;;
9671;SDS011;4874;43.568;27.824;2022-10-31T13:02:44;3.83;;;2.45;;
9671;SDS011;4874;43.568;27.824;2022-10-31T13:05:33;6.00;;;2.75;;
9671;SDS011;4874;43.568;27.824;2022-10-31T13:08:06;4.75;;;2.60;;
9671;SDS011;4874;43.568;27.824;2022-10-31T13:16:10;10.20;;;2.72;;
9671;SDS011;4874;43.568;27.824;2022-10-31T13:18:44;5.20;;;2.17;;
9671;SDS011;4874;43.568;27.824;2022-10-31T13:21:18;6.88;;;2.88;;
9671;SDS011;4874;43.568;27.824;2022-10-31T13:23:52;5.03;;;2.33;;
9671;SDS011;4874;43.568;27.824;2022-10-31T13:26:57;5.80;;;2.75;;
9671;SDS011;4874;43.568;27.824;2022-10-31T13:32:03;5.85;;;2.95;;
9671;SDS011;4874;43.568;27.824;2022-10-31T13:34:36;5.68;;;2.55;;
9671;SDS011;4874;43.568;27.824;2022-10-31T13:37:23;5.70;;;2.30;;
9671;SDS011;4874;43.568;27.824;2022-10-31T13:45:29;7.13;;;2.85;;
9671;SDS011;4874;43.568;27.824;2022-10-31T13:50:27;5.72;;;3.00;;
9671;SDS011;4874;43.568;27.824;2022-10-31T13:55:46;4.63;;;2.63;;
9671;SDS011;4874;43.568;27.824;2022-10-31T13:58:25;4.72;;;2.45;;
9671;SDS011;4874;43.568;27.824;2022-10-31T14:01:05;5.25;;;2.42;;
9671;SDS011;4874;43.568;27.824;2022-10-31T14:03:38;7.28;;;2.30;;
9671;SDS011;4874;43.568;27.824;2022-10-31T14:11:56;6.55;;;2.75;;
9671;SDS011;4874;43.568;27.824;2022-10-31T14:14:29;7.60;;;3.13;;
9671;SDS011;4874;43.568;27.824;2022-10-31T14:17:00;6.10;;;2.92;;
9671;SDS011;4874;43.568;27.824;2022-10-31T14:19:27;5.95;;;2.97;;
9671;SDS011;4874;43.568;27.824;2022-10-31T14:21:54;7.07;;;3.90;;
9671;SDS011;4874;43.568;27.824;2022-10-31T14:26:51;6.80;;;3.80;;
9671;SDS011;4874;43.568;27.824;2022-10-31T14:37:47;6.72;;;3.08;;
9671;SDS011;4874;43.568;27.824;2022-10-31T14:48:56;7.45;;;3.17;;
9671;SDS011;4874;43.568;27.824;2022-10-31T14:51:33;8.77;;;3.72;;
9671;SDS011;4874;43.568;27.824;2022-10-31T14:54:05;7.68;;;3.33;;
9671;SDS011;4874;43.568;27.824;2022-10-31T14:56:34;9.20;;;4.68;;
9671;SDS011;4874;43.568;27.824;2022-10-31T14:59:08;9.88;;;4.28;;
9671;SDS011;4874;43.568;27.824;2022-10-31T15:01:40;9.23;;;4.78;;
9671;SDS011;4874;43.568;27.824;2022-10-31T15:04:25;9.00;;;3.72;;
9671;SDS011;4874;43.568;27.824;2022-10-31T15:06:59;9.13;;;3.63;;
9671;SDS011;4874;43.568;27.824;2022-10-31T15:09:40;7.20;;;3.55;;
9671;SDS011;4874;43.568;27.824;2022-10-31T15:12:25;8.23;;;3.58;;
9671;SDS011;4874;43.568;27.824;2022-10-31T15:14:54;9.68;;;3.88;;
9671;SDS011;4874;43.568;27.824;2022-10-31T15:17:22;18.70;;;4.53;;
9671;SDS011;4874;43.568;27.824;2022-10-31T15:19:51;8.57;;;4.50;;
9671;SDS011;4874;43.568;27.824;2022-10-31T15:22:19;11.90;;;3.95;;
9671;SDS011;4874;43.568;27.824;2022-10-31T15:24:49;11.80;;;4.20;;
9671;SDS011;4874;43.568;27.824;2022-10-31T15:27:22;13.43;;;5.75;;
9671;SDS011;4874;43.568;27.824;2022-10-31T15:29:51;9.15;;;5.10;;
9671;SDS011;4874;43.568;27.824;2022-10-31T15:32:25;9.57;;;5.97;;
9671;SDS011;4874;43.568;27.824;2022-10-31T15:34:54;13.88;;;5.68;;
9671;SDS011;4874;43.568;27.824;2022-10-31T15:37:24;14.02;;;6.18;;
9671;SDS011;4874;43.568;27.824;2022-10-31T15:39:55;14.32;;;6.47;;
9671;SDS011;4874;43.568;27.824;2022-10-31T15:42:32;9.38;;;4.93;;
9671;SDS011;4874;43.568;27.824;2022-10-31T15:47:38;17.15;;;7.32;;
9671;SDS011;4874;43.568;27.824;2022-10-31T15:50:06;20.90;;;9.73;;
9671;SDS011;4874;43.568;27.824;2022-10-31T15:52:47;15.70;;;6.22;;
9671;SDS011;4874;43.568;27.824;2022-10-31T15:55:20;20.45;;;6.07;;
9671;SDS011;4874;43.568;27.824;2022-10-31T15:57:56;18.20;;;6.35;;
9671;SDS011;4874;43.568;27.824;2022-10-31T16:03:05;13.65;;;5.70;;
9671;SDS011;4874;43.568;27.824;2022-10-31T16:05:43;15.80;;;7.07;;
9671;SDS011;4874;43.568;27.824;2022-10-31T16:08:24;19.70;;;8.13;;
9671;SDS011;4874;43.568;27.824;2022-10-31T16:10:55;27.98;;;9.82;;
9671;SDS011;4874;43.568;27.824;2022-10-31T16:13:26;20.95;;;8.93;;
9671;SDS011;4874;43.568;27.824;2022-10-31T16:16:01;25.35;;;8.57;;
9671;SDS011;4874;43.568;27.824;2022-10-31T16:18:51;21.88;;;8.90;;
9671;SDS011;4874;43.568;27.824;2022-10-31T16:21:23;24.95;;;9.48;;
9671;SDS011;4874;43.568;27.824;2022-10-31T16:23:56;20.63;;;8.68;;
9671;SDS011;4874;43.568;27.824;2022-10-31T16:26:31;22.77;;;8.40;;
9671;SDS011;4874;43.568;27.824;2022-10-31T16:28:58;22.70;;;9.85;;
9671;SDS011;4874;43.568;27.824;2022-10-31T16:31:35;24.70;;;9.55;;
9671;SDS011;4874;43.568;27.824;2022-10-31T16:34:04;26.40;;;10.02;;
9671;SDS011;4874;43.568;27.824;2022-10-31T16:36:46;25.63;;;10.57;;
9671;SDS011;4874;43.568;27.824;2022-10-31T16:39:13;28.23;;;9.55;;
9671;SDS011;4874;43.568;27.824;2022-10-31T16:41:40;28.02;;;10.93;;
9671;SDS011;4874;43.568;27.824;2022-10-31T16:44:15;20.35;;;10.30;;
9671;SDS011;4874;43.568;27.824;2022-10-31T16:46:46;179.48;;;123.22;;
9671;SDS011;4874;43.568;27.824;2022-10-31T16:49:13;24.35;;;15.10;;
9671;SDS011;4874;43.568;27.824;2022-10-31T16:51:41;31.08;;;13.55;;
9671;SDS011;4874;43.568;27.824;2022-10-31T16:54:09;29.95;;;12.75;;
9671;SDS011;4874;43.568;27.824;2022-10-31T16:56:37;33.63;;;14.15;;
9671;SDS011;4874;43.568;27.824;2022-10-31T16:59:05;25.10;;;13.25;;
9671;SDS011;4874;43.568;27.824;2022-10-31T17:01:41;30.45;;;14.48;;
9671;SDS011;4874;43.568;27.824;2022-10-31T17:04:13;24.40;;;13.25;;
9671;SDS011;4874;43.568;27.824;2022-10-31T17:06:40;32.65;;;14.50;;
9671;SDS011;4874;43.568;27.824;2022-10-31T17:09:08;76.57;;;48.97;;
9671;SDS011;4874;43.568;27.824;2022-10-31T17:11:35;27.55;;;12.98;;
9671;SDS011;4874;43.568;27.824;2022-10-31T17:14:02;19.33;;;10.43;;
9671;SDS011;4874;43.568;27.824;2022-10-31T17:16:30;27.42;;;11.05;;
9671;SDS011;4874;43.568;27.824;2022-10-31T17:18:56;29.38;;;12.35;;
9671;SDS011;4874;43.568;27.824;2022-10-31T17:21:23;43.53;;;15.32;;
9671;SDS011;4874;43.568;27.824;2022-10-31T17:23:52;54.75;;;21.13;;
9671;SDS011;4874;43.568;27.824;2022-10-31T17:26:19;71.50;;;27.33;;
9671;SDS011;4874;43.568;27.824;2022-10-31T17:28:46;73.97;;;27.77;;
9671;SDS011;4874;43.568;27.824;2022-10-31T17:31:23;73.72;;;26.98;;
9671;SDS011;4874;43.568;27.824;2022-10-31T17:33:54;77.45;;;30.08;;
9671;SDS011;4874;43.568;27.824;2022-10-31T17:36:26;28.80;;;14.32;;
9671;SDS011;4874;43.568;27.824;2022-10-31T17:38:53;27.75;;;14.80;;
9671;SDS011;4874;43.568;27.824;2022-10-31T17:41:20;25.42;;;12.82;;
9671;SDS011;4874;43.568;27.824;2022-10-31T17:43:46;32.05;;;13.52;;
9671;SDS011;4874;43.568;27.824;2022-10-31T17:46:13;31.13;;;14.10;;
9671;SDS011;4874;43.568;27.824;2022-10-31T17:48:40;36.35;;;13.50;;
9671;SDS011;4874;43.568;27.824;2022-10-31T17:51:07;32.40;;;13.45;;
9671;SDS011;4874;43.568;27.824;2022-10-31T17:53:33;33.17;;;12.95;;
9671;SDS011;4874;43.568;27.824;2022-10-31T17:56:01;27.00;;;12.20;;
9671;SDS011;4874;43.568;27.824;2022-10-31T17:58:30;34.58;;;13.02;;
9671;SDS011;4874;43.568;27.824;2022-10-31T18:00:57;32.00;;;13.20;;
9671;SDS011;4874;43.568;27.824;2022-10-31T18:03:24;34.92;;;14.38;;
9671;SDS011;4874;43.568;27.824;2022-10-31T18:05:52;40.38;;;16.48;;
9671;SDS011;4874;43.568;27.824;2022-10-31T18:08:32;33.85;;;13.43;;
9671;SDS011;4874;43.568;27.824;2022-10-31T18:11:07;53.83;;;20.50;;
9671;SDS011;4874;43.568;27.824;2022-10-31T18:13:36;50.95;;;19.13;;
9671;SDS011;4874;43.568;27.824;2022-10-31T18:16:10;49.00;;;20.35;;
9671;SDS011;4874;43.568;27.824;2022-10-31T18:18:39;58.15;;;22.33;;
9671;SDS011;4874;43.568;27.824;2022-10-31T18:21:06;57.30;;;20.25;;